Bridgewater, Massachusetts
Current Conditions -  °F | °C
As of 6:22 PM on Wednesday 22 Oct 2014 (Local Time) from KTAN Reporting Station
Moderate Rain Moderate Rain  
Wind Chill: 12°   Ceiling: 800
Heat Index: 12°   Visibility: 2.5mi
Dew Point: 11°   Wind: 12mph
Humidity: 93%   Direction: 10°N
Pressure: 29.78"   Gusts: 22mph
Location:  41.99°N, 70.98°W
Report Text: KTAN 222222Z AUTO 01010G19KT 2 1/2SM RA BR OVC008 12/11 A2978 RMK AO2 CIG 005V010 P0005 T01220111
Loading
Personal Weather Stations






























Interactive Weather Map
Tropical Storm Tracking
New forecast layout! Learn more

10-Day Weather Forecast

Advertisements
Track Severe Weather on mobile